Time;durP1;ratioP1;P1;durP2;ratioP2;P2;SDS_P1;SDS_P2;PMS_P1;PMS_P2;Temp;Humidity;BMP_temperature;BMP_pressure;BME280_temperature;BME280_humidity;BME280_pressure;Samples;Min_cycle;Max_cycle;Signal;HPM_P1;HPM_P2
2023/03/21 00:00:58;;;;;;;;;;;;;;;11.87;53.10;97402.31;4985008;28;20393;-79
2023/03/21 00:03:23;;;;;;;;;;;;;;;11.82;53.32;97405.66;4964019;28;19929;-78
2023/03/21 00:05:52;;;;;;;;;;;;;;;11.79;53.17;97401.75;4984249;28;19926;-78
2023/03/21 00:08:17;;;;;;;;;;;;;;;11.77;52.61;97395.97;4984477;28;19922;-77
2023/03/21 00:10:43;;;;;;;;;;;;;;;11.76;52.49;97394.41;4983756;28;19929;-78
2023/03/21 00:13:11;;;;;;;;;;;;;;;11.73;52.43;97396.72;4971862;28;20377;-77
2023/03/21 00:15:49;;;;;;;;;;;;;;;11.75;53.05;97400.63;4986500;28;19921;-81
2023/03/21 00:18:17;;;;;;;;;;;;;;;11.65;53.30;97392.72;4988918;28;19953;-81
2023/03/21 00:20:46;;;;;;;;;;;;;;;11.57;53.66;97393.16;4988288;28;19934;-81
2023/03/21 00:23:11;;;;;;;;;;;;;;;11.51;54.16;97388.91;4960689;28;20016;-81
2023/03/21 00:25:36;;;;;;;;;;;;;;;11.42;54.59;97391.94;4973755;28;20012;-81
2023/03/21 00:28:02;;;;;;;;;;;;;;;11.37;53.76;97388.50;4990475;28;19922;-82
2023/03/21 00:30:27;;;;;;;;;;;;;;;11.32;53.59;97386.63;4990474;28;20441;-81
2023/03/21 00:32:53;;;;;;;;;;;;;;;11.27;53.59;97378.75;4973163;28;19940;-81
2023/03/21 00:35:21;;;;;;;;;;;;;;;11.22;53.38;97382.09;4952727;28;20000;-81
2023/03/21 00:37:46;;;;;;;;;;;;;;;11.21;53.25;97369.31;4974052;28;19933;-80
2023/03/21 00:40:12;;;;;;;;;;;;;;;11.17;53.06;97369.00;4973270;28;19921;-81
2023/03/21 00:42:37;;;;;;;;;;;;;;;11.18;53.58;97364.56;4982070;28;20424;-81
2023/03/21 00:45:03;;;;;;;;;;;;;;;11.14;53.99;97366.06;5006238;28;19922;-82
2023/03/21 00:47:29;;;;;;;;;;;;;;;11.08;54.37;97365.25;4956174;28;19949;-79
2023/03/21 00:49:54;;;;;;;;;;;;;;;11.04;54.08;97353.75;4981669;28;19918;-81
2023/03/21 00:52:20;;;;;;;;;;;;;;;10.99;54.28;97357.06;4988009;28;19922;-81
2023/03/21 00:54:45;;;;;;;;;;;;;;;10.95;54.70;97360.38;4974075;28;20328;-81
2023/03/21 00:57:10;;;;;;;;;;;;;;;10.94;54.87;97348.41;5003397;28;19925;-81
2023/03/21 00:59:35;;;;;;;;;;;;;;;10.87;55.17;97341.53;4988102;28;20266;-81
2023/03/21 01:02:01;;;;;;;;;;;;;;;10.84;54.47;97346.44;4987936;28;19968;-80
2023/03/21 01:04:27;;;;;;;;;;;;;;;10.76;55.28;97341.66;4989587;28;19918;-81
2023/03/21 01:06:52;;;;;;;;;;;;;;;10.71;55.36;97338.97;4974393;28;19928;-81
2023/03/21 01:09:20;;;;;;;;;;;;;;;10.67;55.05;97336.06;4989141;28;19963;-81
2023/03/21 01:11:45;;;;;;;;;;;;;;;10.65;54.90;97331.09;4970214;28;19929;-81
2023/03/21 01:14:11;;;;;;;;;;;;;;;10.66;54.94;97337.13;4986653;28;19918;-81
2023/03/21 01:16:36;;;;;;;;;;;;;;;10.54;54.74;97326.81;4956573;28;19960;-81
2023/03/21 01:19:02;;;;;;;;;;;;;;;10.52;55.33;97333.25;4991630;28;20297;-81
2023/03/21 01:21:28;;;;;;;;;;;;;;;10.53;55.39;97332.25;4988242;28;19925;-81
2023/03/21 01:23:53;;;;;;;;;;;;;;;10.53;55.42;97337.44;4989036;28;20345;-81
2023/03/21 01:26:18;;;;;;;;;;;;;;;10.51;55.13;97334.31;4987155;28;19921;-81
2023/03/21 01:28:44;;;;;;;;;;;;;;;10.43;55.48;97338.88;4989258;28;20416;-81
2023/03/21 01:31:10;;;;;;;;;;;;;;;10.39;55.85;97335.19;4985663;28;20057;-81
2023/03/21 01:33:35;;;;;;;;;;;;;;;10.37;56.08;97331.25;4989593;28;20016;-81
2023/03/21 01:36:01;;;;;;;;;;;;;;;10.36;56.52;97333.03;4982526;28;20004;-81
2023/03/21 01:38:26;;;;;;;;;;;;;;;10.36;56.30;97329.66;4993191;28;20389;-81
2023/03/21 01:40:51;;;;;;;;;;;;;;;10.34;56.38;97329.13;4991800;28;19919;-81
2023/03/21 01:43:23;;;;;;;;;;;;;;;10.32;56.69;97321.53;4994546;28;19922;-81
2023/03/21 01:46:07;;;;;;;;;;;;;;;10.26;56.97;97328.47;4972783;28;19925;-81
2023/03/21 01:48:33;;;;;;;;;;;;;;;10.25;57.05;97315.69;4995656;28;20373;-81
2023/03/21 01:50:58;;;;;;;;;;;;;;;10.21;57.38;97312.78;4988523;28;19964;-77
2023/03/21 01:53:28;;;;;;;;;;;;;;;10.24;57.54;97311.50;4986997;28;20400;-77
2023/03/21 01:55:54;;;;;;;;;;;;;;;10.33;57.71;97310.09;4985619;28;20016;-78
2023/03/21 01:58:19;;;;;;;;;;;;;;;10.41;56.82;97303.72;4991371;28;20013;-77
2023/03/21 02:00:45;;;;;;;;;;;;;;;10.47;56.62;97310.56;4980416;28;19922;-81
2023/03/21 02:03:15;;;;;;;;;;;;;;;10.46;56.93;97303.78;4979542;28;19971;-77
2023/03/21 02:05:49;;;;;;;;;;;;;;;10.52;56.77;97302.03;4986854;28;19944;-77
2023/03/21 02:08:15;;;;;;;;;;;;;;;10.52;56.84;97302.81;4988651;28;19969;-77
2023/03/21 02:10:41;;;;;;;;;;;;;;;10.57;57.28;97294.28;4988976;28;20290;-77
2023/03/21 02:13:10;;;;;;;;;;;;;;;10.57;57.20;97304.69;4970767;28;19922;-77
2023/03/21 02:15:40;;;;;;;;;;;;;;;10.53;56.53;97301.00;4984024;28;20008;-77
2023/03/21 02:18:26;;;;;;;;;;;;;;;10.62;56.48;97295.13;4972719;28;20012;-77
2023/03/21 02:20:54;;;;;;;;;;;;;;;10.58;56.44;97293.25;4988744;28;20333;-77
2023/03/21 02:23:39;;;;;;;;;;;;;;;10.48;56.66;97297.28;4992246;28;20365;-77
2023/03/21 02:26:07;;;;;;;;;;;;;;;10.42;58.03;97290.47;4966448;28;20321;-77
2023/03/21 02:28:35;;;;;;;;;;;;;;;10.43;56.94;97288.63;4984875;28;20289;-77
2023/03/21 02:31:03;;;;;;;;;;;;;;;10.45;57.51;97289.97;4988488;28;19953;-77
2023/03/21 02:33:53;;;;;;;;;;;;;;;10.51;57.40;97280.41;4978559;28;19925;-77
2023/03/21 02:36:24;;;;;;;;;;;;;;;10.58;57.34;97285.44;4987675;28;20012;-77
2023/03/21 02:39:03;;;;;;;;;;;;;;;10.61;56.83;97271.97;4990363;28;20327;-77
2023/03/21 02:41:37;;;;;;;;;;;;;;;10.58;57.08;97273.22;4978942;28;19918;-77
2023/03/21 02:44:05;;;;;;;;;;;;;;;10.58;56.97;97272.44;4972455;28;19925;-77
2023/03/21 02:46:34;;;;;;;;;;;;;;;10.67;56.56;97274.34;4992199;28;20325;-77
2023/03/21 02:49:02;;;;;;;;;;;;;;;10.56;56.21;97264.84;4971480;28;19925;-77
2023/03/21 02:51:27;;;;;;;;;;;;;;;10.49;56.12;97261.66;4975686;28;19921;-78
2023/03/21 02:53:54;;;;;;;;;;;;;;;10.54;55.91;97259.13;4972977;28;19924;-77
2023/03/21 02:56:20;;;;;;;;;;;;;;;10.60;55.87;97265.94;4992907;28;20439;-78
2023/03/21 02:58:45;;;;;;;;;;;;;;;10.64;55.37;97259.25;5001498;28;19925;-77
2023/03/21 03:01:10;;;;;;;;;;;;;;;10.67;54.77;97266.53;4986112;28;19957;-77
2023/03/21 03:03:38;;;;;;;;;;;;;;;10.66;54.72;97270.19;4987952;28;19918;-77
2023/03/21 03:06:07;;;;;;;;;;;;;;;10.53;55.08;97267.16;4943668;28;20386;-77
2023/03/21 03:08:35;;;;;;;;;;;;;;;10.58;55.34;97257.59;4987628;28;19924;-77
2023/03/21 03:11:05;;;;;;;;;;;;;;;10.48;55.41;97268.66;4963796;28;19925;-77
2023/03/21 03:13:37;;;;;;;;;;;;;;;10.45;55.91;97263.94;4965018;28;20008;-77
2023/03/21 03:16:04;;;;;;;;;;;;;;;10.51;55.95;97261.41;4995264;28;19918;-78
2023/03/21 03:18:49;;;;;;;;;;;;;;;10.57;55.74;97260.44;4987686;28;20304;-78
2023/03/21 03:21:17;;;;;;;;;;;;;;;10.61;55.82;97251.13;4989573;28;20012;-76
2023/03/21 03:23:47;;;;;;;;;;;;;;;10.63;55.42;97244.63;4970378;28;19922;-76
2023/03/21 03:26:13;;;;;;;;;;;;;;;10.67;55.21;97250.13;4986725;28;19945;-76
2023/03/21 03:28:39;;;;;;;;;;;;;;;10.73;54.48;97249.19;5003896;28;19960;-77
2023/03/21 03:31:07;;;;;;;;;;;;;;;10.72;54.70;97245.00;4987510;28;20405;-76
2023/03/21 03:33:33;;;;;;;;;;;;;;;10.71;54.39;97245.22;4972219;28;19918;-76
2023/03/21 03:35:59;;;;;;;;;;;;;;;10.71;54.79;97253.03;4963211;28;19982;-76
2023/03/21 03:38:24;;;;;;;;;;;;;;;10.68;54.91;97251.72;4986194;28;19930;-77
2023/03/21 03:40:51;;;;;;;;;;;;;;;10.64;54.81;97255.81;4970564;28;19922;-76
2023/03/21 03:43:17;;;;;;;;;;;;;;;10.55;54.99;97258.06;4975398;28;20044;-76
2023/03/21 03:45:45;;;;;;;;;;;;;;;10.43;55.47;97252.97;4985863;28;20013;-75
2023/03/21 03:48:10;;;;;;;;;;;;;;;10.38;55.73;97252.13;4978858;28;19949;-76
2023/03/21 03:50:37;;;;;;;;;;;;;;;10.28;56.72;97263.97;4984344;28;19980;-76
2023/03/21 03:53:26;;;;;;;;;;;;;;;10.28;56.34;97261.34;4972358;28;19949;-76
2023/03/21 03:55:52;;;;;;;;;;;;;;;10.32;56.41;97263.50;4986100;28;20009;-76
2023/03/21 03:58:18;;;;;;;;;;;;;;;10.41;56.29;97262.84;4989513;28;20555;-76
2023/03/21 04:00:44;;;;;;;;;;;;;;;10.57;55.87;97265.63;4990958;28;20005;-76
2023/03/21 04:03:09;;;;;;;;;;;;;;;10.65;55.31;97262.63;4989387;28;19945;-76
2023/03/21 04:05:35;;;;;;;;;;;;;;;10.73;55.17;97264.00;4959459;28;20365;-76
2023/03/21 04:08:01;;;;;;;;;;;;;;;10.84;55.35;97263.88;4981596;28;20441;-76
2023/03/21 04:10:26;;;;;;;;;;;;;;;10.82;54.84;97260.72;4991344;28;19918;-77
2023/03/21 04:12:51;;;;;;;;;;;;;;;10.78;54.97;97266.66;4974270;28;20338;-76
2023/03/21 04:15:18;;;;;;;;;;;;;;;10.70;55.61;97272.31;4990178;28;19928;-76
2023/03/21 04:17:44;;;;;;;;;;;;;;;10.74;55.44;97265.59;4964002;28;19921;-76
2023/03/21 04:20:09;;;;;;;;;;;;;;;10.77;55.62;97262.50;4966370;28;19918;-76
2023/03/21 04:22:35;;;;;;;;;;;;;;;10.73;56.44;97256.19;4994897;28;19921;-76
2023/03/21 04:25:00;;;;;;;;;;;;;;;10.71;56.62;97255.66;5000914;28;20309;-76
2023/03/21 04:27:26;;;;;;;;;;;;;;;10.75;56.44;97259.34;5007489;28;19924;-76
2023/03/21 04:29:51;;;;;;;;;;;;;;;10.82;56.58;97249.53;4989204;28;19918;-76
2023/03/21 04:32:18;;;;;;;;;;;;;;;10.87;56.16;97250.38;4973212;28;19928;-76
2023/03/21 04:34:48;;;;;;;;;;;;;;;10.99;55.72;97254.66;4984593;28;20380;-76
2023/03/21 04:37:17;;;;;;;;;;;;;;;11.04;55.61;97252.91;4991907;28;19922;-76
2023/03/21 04:39:45;;;;;;;;;;;;;;;11.10;55.56;97252.94;4991503;28;19936;-76
2023/03/21 04:42:10;;;;;;;;;;;;;;;11.18;55.41;97255.13;4972362;28;20400;-76
2023/03/21 04:44:35;;;;;;;;;;;;;;;11.29;54.95;97246.34;4983635;28;19918;-76
2023/03/21 04:47:01;;;;;;;;;;;;;;;11.28;54.88;97244.00;4989193;28;20366;-76
2023/03/21 04:49:26;;;;;;;;;;;;;;;11.34;54.79;97243.78;4977076;28;20086;-76
2023/03/21 04:51:51;;;;;;;;;;;;;;;11.37;54.16;97247.75;4983269;28;19977;-76
2023/03/21 04:54:17;;;;;;;;;;;;;;;11.32;54.41;97237.25;4988825;28;19928;-76
2023/03/21 04:56:43;;;;;;;;;;;;;;;11.18;54.66;97240.25;4971607;28;19921;-76
2023/03/21 04:59:09;;;;;;;;;;;;;;;11.21;54.99;97239.00;5004338;28;19968;-76
2023/03/21 05:01:35;;;;;;;;;;;;;;;11.21;54.67;97239.00;5005685;28;20444;-76
2023/03/21 05:04:00;;;;;;;;;;;;;;;11.13;54.76;97242.03;4989362;28;19922;-77
2023/03/21 05:06:26;;;;;;;;;;;;;;;11.14;54.92;97235.78;4990609;28;19933;-76
2023/03/21 05:08:52;;;;;;;;;;;;;;;11.02;55.61;97231.53;4969992;28;20032;-76
2023/03/21 05:11:17;;;;;;;;;;;;;;;11.01;55.40;97231.75;4989281;28;19929;-76
2023/03/21 05:13:42;;;;;;;;;;;;;;;11.00;55.45;97232.78;4962692;28;19925;-76
2023/03/21 05:16:08;;;;;;;;;;;;;;;10.98;55.57;97238.22;4972176;28;19914;-77
2023/03/21 05:18:33;;;;;;;;;;;;;;;10.87;55.99;97228.75;4990502;28;20017;-76
2023/03/21 05:20:59;;;;;;;;;;;;;;;10.81;56.38;97232.31;4974194;28;19918;-77
2023/03/21 05:23:24;;;;;;;;;;;;;;;10.79;56.24;97222.16;4989974;28;19926;-76
2023/03/21 05:25:49;;;;;;;;;;;;;;;10.80;55.95;97228.16;4988194;28;20480;-76
2023/03/21 05:28:17;;;;;;;;;;;;;;;10.77;55.96;97220.84;4997624;28;20293;-76
2023/03/21 05:30:42;;;;;;;;;;;;;;;10.71;55.68;97227.00;4989825;28;20336;-77
2023/03/21 05:33:08;;;;;;;;;;;;;;;10.73;55.59;97220.53;4996787;28;19928;-76
2023/03/21 05:35:33;;;;;;;;;;;;;;;10.79;55.59;97226.56;4986817;28;20302;-77
2023/03/21 05:37:58;;;;;;;;;;;;;;;10.87;54.91;97224.31;4956609;28;19981;-76
2023/03/21 05:40:24;;;;;;;;;;;;;;;10.93;55.04;97230.38;4989662;28;19922;-76
2023/03/21 05:42:49;;;;;;;;;;;;;;;10.98;55.19;97229.63;4966203;28;20271;-76
2023/03/21 05:45:14;;;;;;;;;;;;;;;10.89;55.51;97225.91;5005477;28;19921;-76
2023/03/21 05:47:40;;;;;;;;;;;;;;;10.92;55.30;97228.81;4989969;28;20386;-76
2023/03/21 05:50:05;;;;;;;;;;;;;;;10.97;55.30;97233.28;4985019;28;19926;-76
2023/03/21 05:52:31;;;;;;;;;;;;;;;11.01;54.62;97229.16;4969737;28;20373;-76
2023/03/21 05:54:56;;;;;;;;;;;;;;;11.10;54.03;97225.06;4985856;28;19917;-76
2023/03/21 05:57:21;;;;;;;;;;;;;;;11.15;54.12;97234.75;4956745;28;19925;-77
2023/03/21 05:59:48;;;;;;;;;;;;;;;11.19;54.02;97225.41;4968980;28;19967;-77
2023/03/21 06:02:13;;;;;;;;;;;;;;;11.34;52.83;97227.38;4956784;28;20383;-76
2023/03/21 06:04:48;;;;;;;;;;;;;;;11.30;53.67;97227.09;4971719;28;20004;-76
2023/03/21 06:07:13;;;;;;;;;;;;;;;11.44;52.36;97232.69;4987701;28;19921;-76
2023/03/21 06:09:38;;;;;;;;;;;;;;;11.48;52.80;97230.34;4989450;28;19925;-77
2023/03/21 06:12:04;;;;;;;;;;;;;;;11.60;52.70;97228.34;4966896;28;20325;-76
2023/03/21 06:14:29;;;;;;;;;;;;;;;11.63;51.87;97230.47;4971899;28;19922;-76
2023/03/21 06:16:55;;;;;;;;;;;;;;;11.78;51.76;97227.19;4983524;28;19928;-77
2023/03/21 06:19:23;;;;;;;;;;;;;;;11.80;52.02;97228.50;4988101;28;19933;-76
2023/03/21 06:21:48;;;;;;;;;;;;;;;11.83;52.11;97223.84;4987734;28;19922;-76
2023/03/21 06:24:14;;;;;;;;;;;;;;;11.77;52.62;97231.66;4980294;28;20305;-76
2023/03/21 06:26:41;;;;;;;;;;;;;;;11.79;52.98;97226.19;4991007;28;20377;-77
2023/03/21 06:29:06;;;;;;;;;;;;;;;11.84;53.12;97233.22;4972130;28;19918;-76
2023/03/21 06:31:31;;;;;;;;;;;;;;;11.92;53.06;97238.03;4976467;28;19928;-77
2023/03/21 06:33:56;;;;;;;;;;;;;;;11.89;53.10;97233.25;5000694;28;19914;-77
2023/03/21 06:36:22;;;;;;;;;;;;;;;11.92;53.67;97238.03;4999205;28;19922;-76
2023/03/21 06:38:47;;;;;;;;;;;;;;;11.94;53.54;97241.16;4971531;28;19969;-76
2023/03/21 06:41:13;;;;;;;;;;;;;;;12.00;52.63;97248.00;4997039;28;19917;-76
2023/03/21 06:43:38;;;;;;;;;;;;;;;12.06;52.35;97246.97;5004351;28;20338;-77
2023/03/21 06:46:04;;;;;;;;;;;;;;;12.12;51.52;97243.38;4987686;28;19926;-77
2023/03/21 06:48:30;;;;;;;;;;;;;;;12.28;51.38;97246.84;4989130;28;20004;-77
2023/03/21 06:50:55;;;;;;;;;;;;;;;12.30;51.26;97249.19;4976294;28;19926;-77
2023/03/21 06:53:23;;;;;;;;;;;;;;;12.39;51.62;97249.50;4986964;28;20073;-77
2023/03/21 06:55:49;;;;;;;;;;;;;;;12.41;51.78;97250.84;4986932;28;19992;-77
2023/03/21 06:58:14;;;;;;;;;;;;;;;12.52;50.41;97244.59;4988171;28;19965;-77
2023/03/21 07:00:40;;;;;;;;;;;;;;;12.64;50.48;97254.84;4985356;28;19922;-76
2023/03/21 07:03:05;;;;;;;;;;;;;;;12.72;50.60;97253.59;4962419;28;19924;-77
2023/03/21 07:05:31;;;;;;;;;;;;;;;12.80;50.50;97241.84;4987731;28;19968;-77
2023/03/21 07:07:56;;;;;;;;;;;;;;;12.77;50.84;97242.38;4985386;28;19939;-77
2023/03/21 07:10:21;;;;;;;;;;;;;;;12.89;50.72;97241.09;4998440;28;19918;-76
2023/03/21 07:12:46;;;;;;;;;;;;;;;12.84;51.12;97238.47;4983030;28;20322;-76
2023/03/21 07:15:12;;;;;;;;;;;;;;;12.97;50.94;97242.44;4991818;28;20420;-77
2023/03/21 07:17:37;;;;;;;;;;;;;;;12.99;50.25;97240.34;4971250;28;19977;-77
2023/03/21 07:20:06;;;;;;;;;;;;;;;12.99;50.05;97240.34;5003993;28;19980;-77
2023/03/21 07:22:32;;;;;;;;;;;;;;;13.01;50.40;97237.47;4956838;28;20000;-77
2023/03/21 07:24:57;;;;;;;;;;;;;;;13.05;50.46;97244.53;4986605;28;19917;-76
2023/03/21 07:27:22;;;;;;;;;;;;;;;13.13;50.09;97245.84;4972351;28;19918;-77
2023/03/21 07:29:49;;;;;;;;;;;;;;;13.18;50.14;97238.03;4981185;28;20357;-77
2023/03/21 07:32:14;;;;;;;;;;;;;;;13.25;49.53;97243.78;4991852;28;20271;-77
2023/03/21 07:34:40;;;;;;;;;;;;;;;13.26;49.79;97240.13;4968518;28;20350;-78
2023/03/21 07:37:06;;;;;;;;;;;;;;;13.33;50.16;97239.09;4959517;28;19918;-76
2023/03/21 07:39:32;;;;;;;;;;;;;;;13.48;49.96;97239.13;4989184;28;20425;-77
2023/03/21 07:41:57;;;;;;;;;;;;;;;13.55;49.33;97239.63;4985420;28;19932;-77
2023/03/21 07:44:22;;;;;;;;;;;;;;;13.60;48.61;97234.41;4985052;28;19990;-77
2023/03/21 07:46:48;;;;;;;;;;;;;;;13.81;49.05;97235.19;4990539;28;20004;-77
2023/03/21 07:49:13;;;;;;;;;;;;;;;13.97;48.72;97238.56;4991642;28;19918;-77
2023/03/21 07:51:38;;;;;;;;;;;;;;;14.07;47.84;97236.97;4991563;28;20016;-77
2023/03/21 07:54:04;;;;;;;;;;;;;;;14.07;48.29;97243.03;4992699;28;19925;-77
2023/03/21 07:56:29;;;;;;;;;;;;;;;14.24;47.90;97243.50;4973944;28;19924;-77
2023/03/21 07:58:54;;;;;;;;;;;;;;;14.35;48.14;97244.25;4975063;28;19946;-77
2023/03/21 08:01:20;;;;;;;;;;;;;;;14.38;48.17;97243.72;4974534;28;19968;-77
2023/03/21 08:03:46;;;;;;;;;;;;;;;14.34;47.95;97242.69;4992295;28;19921;-76
2023/03/21 08:06:12;;;;;;;;;;;;;;;14.37;47.59;97236.13;4991613;28;19928;-77
2023/03/21 08:08:37;;;;;;;;;;;;;;;14.37;47.79;97238.75;4991415;28;20373;-76
2023/03/21 08:11:03;;;;;;;;;;;;;;;14.43;47.40;97242.94;4990500;28;19922;-77
2023/03/21 08:13:28;;;;;;;;;;;;;;;14.56;46.67;97250.19;4991368;28;19945;-77
2023/03/21 08:15:53;;;;;;;;;;;;;;;14.57;46.80;97251.00;5006244;28;19922;-76
2023/03/21 08:18:19;;;;;;;;;;;;;;;14.72;46.82;97245.72;4971431;28;19936;-77
2023/03/21 08:20:44;;;;;;;;;;;;;;;14.75;46.81;97244.38;4976724;28;20309;-77
2023/03/21 08:23:10;;;;;;;;;;;;;;;14.67;47.71;97245.75;4980582;28;19925;-77
2023/03/21 08:25:35;;;;;;;;;;;;;;;14.84;46.80;97249.84;4973645;28;19925;-77
2023/03/21 08:28:00;;;;;;;;;;;;;;;14.98;47.01;97248.22;5003561;28;19918;-77
2023/03/21 08:30:27;;;;;;;;;;;;;;;14.92;46.75;97246.66;4958206;28;19918;-77
2023/03/21 08:32:57;;;;;;;;;;;;;;;15.01;45.79;97246.88;4989486;28;19925;-77
2023/03/21 08:35:22;;;;;;;;;;;;;;;15.08;46.46;97248.16;4986426;28;19918;-76
2023/03/21 08:37:47;;;;;;;;;;;;;;;15.13;45.42;97249.94;4984738;28;20028;-77
2023/03/21 08:40:14;;;;;;;;;;;;;;;15.11;44.98;97252.06;4986070;28;19918;-76
2023/03/21 08:42:40;;;;;;;;;;;;;;;15.13;46.16;97244.72;4987165;28;20013;-77
2023/03/21 08:45:05;;;;;;;;;;;;;;;15.25;46.06;97249.63;4986583;28;19996;-77
2023/03/21 08:47:31;;;;;;;;;;;;;;;15.25;46.05;97254.88;4990346;28;19961;-76
2023/03/21 08:49:56;;;;;;;;;;;;;;;15.26;45.69;97245.97;4989907;28;19917;-77
2023/03/21 08:52:22;;;;;;;;;;;;;;;15.29;46.24;97251.44;4990205;28;19967;-77
2023/03/21 08:54:47;;;;;;;;;;;;;;;15.13;46.29;97242.09;4989901;28;20420;-77
2023/03/21 08:57:13;;;;;;;;;;;;;;;15.13;46.08;97242.09;4973956;28;19924;-76
2023/03/21 08:59:39;;;;;;;;;;;;;;;15.33;45.48;97243.81;4973839;28;19991;-76
2023/03/21 09:02:04;;;;;;;;;;;;;;;15.33;45.87;97241.97;4989329;28;20282;-77
2023/03/21 09:04:30;;;;;;;;;;;;;;;15.38;45.78;97246.41;4957562;28;19918;-77
2023/03/21 09:06:55;;;;;;;;;;;;;;;15.39;45.22;97240.09;4974573;28;20285;-76
2023/03/21 09:09:20;;;;;;;;;;;;;;;15.40;45.90;97236.41;4989920;28;20035;-77
2023/03/21 09:11:45;;;;;;;;;;;;;;;15.37;45.99;97236.97;4973804;28;19922;-77
2023/03/21 09:14:11;;;;;;;;;;;;;;;15.48;46.09;97232.44;4990015;28;20076;-76
2023/03/21 09:16:36;;;;;;;;;;;;;;;15.58;45.73;97236.81;4974000;28;19918;-77
2023/03/21 09:19:03;;;;;;;;;;;;;;;15.63;45.41;97234.16;4971902;28;19929;-77
2023/03/21 09:21:28;;;;;;;;;;;;;;;15.73;45.59;97234.06;5005885;28;19921;-76
2023/03/21 09:23:55;;;;;;;;;;;;;;;15.62;45.16;97246.47;4990714;28;20282;-77
2023/03/21 09:26:23;;;;;;;;;;;;;;;15.81;44.74;97241.34;5006151;28;19926;-77
2023/03/21 09:28:49;;;;;;;;;;;;;;;15.42;45.83;97242.19;4989759;28;20296;-76
2023/03/21 09:31:21;;;;;;;;;;;;;;;15.49;45.19;97239.22;5005570;28;20029;-77
2023/03/21 09:33:50;;;;;;;;;;;;;;;15.69;45.39;97248.78;4990321;28;20328;-77
2023/03/21 09:36:19;;;;;;;;;;;;;;;15.66;45.22;97233.59;4972591;28;20021;-77
2023/03/21 09:38:45;;;;;;;;;;;;;;;15.70;46.39;97245.13;4990253;28;20020;-77
2023/03/21 09:41:26;;;;;;;;;;;;;;;15.97;44.84;97238.59;4980204;28;20033;-77
2023/03/21 09:43:58;;;;;;;;;;;;;;;16.14;44.95;97244.19;5001518;28;19918;-77
2023/03/21 09:46:29;;;;;;;;;;;;;;;15.99;45.24;97246.97;4997006;28;19925;-77
2023/03/21 09:49:01;;;;;;;;;;;;;;;16.21;44.98;97249.91;4989833;28;19925;-76
2023/03/21 09:51:32;;;;;;;;;;;;;;;15.89;45.60;97246.00;4961442;28;19918;-78
2023/03/21 09:53:59;;;;;;;;;;;;;;;16.21;46.12;97246.50;5006205;28;19917;-77
2023/03/21 09:56:24;;;;;;;;;;;;;;;16.16;46.60;97242.09;4980168;28;19922;-76
2023/03/21 09:58:52;;;;;;;;;;;;;;;16.09;46.05;97239.78;4987224;28;19929;-77
2023/03/21 10:01:34;;;;;;;;;;;;;;;16.05;45.90;97240.63;5005335;28;20091;-77
2023/03/21 10:04:00;;;;;;;;;;;;;;;16.25;46.11;97242.25;4990063;28;19917;-77
2023/03/21 10:06:29;;;;;;;;;;;;;;;16.21;45.04;97234.16;4995875;28;19980;-77
2023/03/21 10:09:13;;;;;;;;;;;;;;;16.31;45.11;97232.47;4958878;28;19925;-77
2023/03/21 10:11:46;;;;;;;;;;;;;;;16.41;45.33;97229.72;4980599;28;20444;-76
2023/03/21 10:14:14;;;;;;;;;;;;;;;16.38;45.00;97230.28;4989465;28;19924;-77
2023/03/21 10:16:43;;;;;;;;;;;;;;;16.28;45.22;97224.09;4993930;28;19973;-76
2023/03/21 10:19:16;;;;;;;;;;;;;;;16.08;45.19;97230.34;4939601;28;20193;-76
2023/03/21 10:21:42;;;;;;;;;;;;;;;16.49;45.01;97223.88;4989357;28;19917;-77
2023/03/21 10:24:12;;;;;;;;;;;;;;;16.55;45.94;97222.72;4972918;28;19917;-76
2023/03/21 10:26:37;;;;;;;;;;;;;;;16.60;45.76;97220.03;4989807;28;19918;-77
2023/03/21 10:29:02;;;;;;;;;;;;;;;16.64;45.51;97225.53;4988440;28;19917;-77
2023/03/21 10:31:28;;;;;;;;;;;;;;;17.06;44.18;97215.28;4977244;28;19968;-76
2023/03/21 10:33:55;;;;;;;;;;;;;;;17.32;43.88;97213.81;4987828;28;19924;-76
2023/03/21 10:36:27;;;;;;;;;;;;;;;17.47;42.73;97210.16;4972991;28;20004;-76
2023/03/21 10:38:56;;;;;;;;;;;;;;;17.63;42.17;97213.31;4956382;28;19922;-76
2023/03/21 10:41:23;;;;;;;;;;;;;;;17.73;41.62;97209.75;5003659;28;21571;-77
2023/03/21 10:44:06;;;;;;;;;;;;;;;17.34;42.97;97206.44;4989074;28;19964;-77
2023/03/21 10:46:32;;;;;;;;;;;;;;;17.50;43.23;97195.66;4991428;28;19918;-76
2023/03/21 10:48:57;;;;;;;;;;;;;;;17.66;41.46;97206.72;4972075;28;20298;-76
2023/03/21 10:51:27;;;;;;;;;;;;;;;17.97;41.72;97196.44;4991731;28;19921;-76
2023/03/21 10:53:53;;;;;;;;;;;;;;;18.21;41.10;97198.13;4988936;28;20449;-76
2023/03/21 10:56:19;;;;;;;;;;;;;;;18.36;41.40;97197.81;4959294;28;19918;-76
2023/03/21 10:58:45;;;;;;;;;;;;;;;18.14;41.60;97201.91;4971301;28;19926;-75
2023/03/21 11:01:14;;;;;;;;;;;;;;;18.13;40.31;97199.59;4987897;28;19925;-76
2023/03/21 11:03:45;;;;;;;;;;;;;;;17.95;41.32;97198.59;4987664;28;20370;-76
2023/03/21 11:06:29;;;;;;;;;;;;;;;18.37;41.34;97194.13;4972012;28;19926;-76
2023/03/21 11:08:57;;;;;;;;;;;;;;;18.32;40.39;97192.38;5004051;28;20404;-77
2023/03/21 11:11:52;;;;;;;;;;;;;;;18.62;39.08;97192.03;4968190;28;19918;-76
2023/03/21 11:14:26;;;;;;;;;;;;;;;18.47;39.30;97190.47;4979636;28;19933;-75
2023/03/21 11:16:51;;;;;;;;;;;;;;;18.36;38.83;97191.78;4974347;28;20437;-76
2023/03/21 11:19:37;;;;;;;;;;;;;;;18.45;38.64;97190.78;4986481;28;20072;-76
2023/03/21 11:22:06;;;;;;;;;;;;;;;18.64;38.19;97192.50;5004131;28;19918;-76
2023/03/21 11:24:31;;;;;;;;;;;;;;;18.61;38.45;97183.34;4972231;28;19925;-77
2023/03/21 11:26:57;;;;;;;;;;;;;;;18.77;38.50;97186.44;4995881;28;19918;-77
2023/03/21 11:29:28;;;;;;;;;;;;;;;18.87;38.48;97180.19;5003459;28;20454;-77
2023/03/21 11:31:57;;;;;;;;;;;;;;;18.85;36.93;97177.06;4973872;28;19965;-76
2023/03/21 11:34:33;;;;;;;;;;;;;;;18.98;37.07;97173.59;4986963;28;20017;-76
2023/03/21 11:37:00;;;;;;;;;;;;;;;18.85;37.28;97182.31;4986891;28;19925;-76
2023/03/21 11:39:33;;;;;;;;;;;;;;;18.79;36.67;97181.63;4960652;28;19922;-76
2023/03/21 11:41:58;;;;;;;;;;;;;;;18.76;37.25;97184.88;4969391;28;19956;-75
2023/03/21 11:44:31;;;;;;;;;;;;;;;18.74;37.04;97179.09;4987942;28;19965;-76
2023/03/21 11:46:56;;;;;;;;;;;;;;;18.71;37.93;97169.94;4956233;28;20004;-76
2023/03/21 11:49:22;;;;;;;;;;;;;;;18.52;37.45;97174.56;4987813;28;20012;-75
2023/03/21 11:51:53;;;;;;;;;;;;;;;18.37;37.74;97164.34;4985999;28;19922;-76
2023/03/21 11:54:24;;;;;;;;;;;;;;;18.27;37.78;97157.44;4988926;28;19918;-76
2023/03/21 11:56:50;;;;;;;;;;;;;;;18.25;37.52;97160.34;4987308;28;20004;-76
2023/03/21 11:59:28;;;;;;;;;;;;;;;18.15;36.96;97160.56;4946999;28;20069;-75
2023/03/21 12:02:03;;;;;;;;;;;;;;;18.20;38.01;97155.19;4992254;28;19952;-77
2023/03/21 12:04:34;;;;;;;;;;;;;;;18.31;38.57;97161.78;4988386;28;20197;-77
2023/03/21 12:07:01;;;;;;;;;;;;;;;18.31;38.81;97153.13;4988320;28;19922;-77
2023/03/21 12:09:37;;;;;;;;;;;;;;;18.40;38.80;97156.59;4986780;28;19960;-76
2023/03/21 12:12:06;;;;;;;;;;;;;;;18.42;38.79;97156.31;4979053;28;19993;-76
2023/03/21 12:14:44;;;;;;;;;;;;;;;18.29;39.00;97144.72;4987702;28;20373;-76
2023/03/21 12:17:12;;;;;;;;;;;;;;;18.28;40.30;97148.44;4990306;28;19918;-77
2023/03/21 12:19:47;;;;;;;;;;;;;;;18.17;38.65;97147.09;4990516;28;19929;-76
2023/03/21 12:22:23;;;;;;;;;;;;;;;18.19;38.80;97140.44;4973049;28;19941;-76
2023/03/21 12:24:49;;;;;;;;;;;;;;;18.08;40.37;97137.22;4990443;28;19918;-76
2023/03/21 12:27:31;;;;;;;;;;;;;;;18.13;39.17;97131.84;4981423;28;19921;-77
2023/03/21 12:30:11;;;;;;;;;;;;;;;18.13;39.30;97129.22;4990391;28;20385;-76
2023/03/21 12:32:40;;;;;;;;;;;;;;;18.13;39.71;97137.13;4991268;28;20444;-76
2023/03/21 12:35:23;;;;;;;;;;;;;;;17.99;39.49;97125.81;4992103;28;20353;-76
2023/03/21 12:38:11;;;;;;;;;;;;;;;18.03;40.17;97123.38;4991114;28;19921;-76
2023/03/21 12:40:55;;;;;;;;;;;;;;;18.01;40.72;97123.69;4974904;28;20024;-76
2023/03/21 12:43:21;;;;;;;;;;;;;;;18.00;41.23;97119.47;4974858;28;19925;-77
2023/03/21 12:45:47;;;;;;;;;;;;;;;17.63;43.66;97125.66;4995811;28;19921;-76
2023/03/21 12:48:22;;;;;;;;;;;;;;;17.41;45.41;97122.63;4992354;28;19924;-76
2023/03/21 12:50:49;;;;;;;;;;;;;;;17.34;44.81;97122.22;4989853;28;19981;-77